createdAt,value
2022-12-29T00:02:18.325Z,22.10
2022-12-29T00:04:47.684Z,19.70
2022-12-29T00:07:15.595Z,20.33
2022-12-29T00:09:43.636Z,18.10
2022-12-29T00:12:11.584Z,20.13
2022-12-29T00:14:57.353Z,25.13
2022-12-29T00:17:25.298Z,17.00
2022-12-29T00:20:11.900Z,19.00
2022-12-29T00:22:57.516Z,17.80
2022-12-29T00:25:43.038Z,17.50
2022-12-29T00:28:28.506Z,18.40
2022-12-29T00:31:18.517Z,17.43
2022-12-29T00:34:03.791Z,19.50
2022-12-29T00:36:36.670Z,22.07
2022-12-29T00:39:25.732Z,23.53
2022-12-29T00:42:19.694Z,18.03
2022-12-29T00:44:47.677Z,20.40
2022-12-29T00:47:15.660Z,19.87
2022-12-29T00:49:42.681Z,18.67
2022-12-29T00:52:14.352Z,27.13
2022-12-29T00:54:45.735Z,25.83
2022-12-29T00:57:14.163Z,20.13
2022-12-29T00:59:43.800Z,20.60
2022-12-29T01:02:12.637Z,20.90
2022-12-29T01:04:40.739Z,20.20
2022-12-29T01:07:08.728Z,19.53
2022-12-29T01:09:55.402Z,20.50
2022-12-29T01:12:41.322Z,22.00
2022-12-29T01:15:11.393Z,18.70
2022-12-29T01:17:39.456Z,21.73
2022-12-29T01:20:08.655Z,25.53
2022-12-29T01:22:36.648Z,28.43
2022-12-29T01:25:07.396Z,20.80
2022-12-29T01:27:35.367Z,21.60
2022-12-29T01:30:03.556Z,25.20
2022-12-29T01:32:31.485Z,24.93
2022-12-29T01:35:00.563Z,27.80
2022-12-29T01:37:28.478Z,41.27
2022-12-29T01:39:56.457Z,25.33
2022-12-29T01:42:27.963Z,21.97
2022-12-29T01:44:57.791Z,20.00
2022-12-29T01:47:34.568Z,19.10
2022-12-29T01:50:07.458Z,30.90
2022-12-29T01:52:39.360Z,24.00
2022-12-29T01:55:08.741Z,17.97
2022-12-29T01:57:42.403Z,22.17
2022-12-29T02:00:13.299Z,18.07
2022-12-29T02:02:44.402Z,16.90
2022-12-29T02:05:16.332Z,19.37
2022-12-29T02:07:46.804Z,18.63
2022-12-29T02:10:15.416Z,19.43
2022-12-29T02:12:44.994Z,17.03
2022-12-29T02:15:13.169Z,21.93
2022-12-29T02:18:00.130Z,18.87
2022-12-29T02:21:07.368Z,19.27
2022-12-29T02:24:12.072Z,21.37
2022-12-29T02:27:17.549Z,22.37
2022-12-29T02:30:04.212Z,20.40
2022-12-29T02:32:40.798Z,16.73
2022-12-29T02:35:14.554Z,18.50
2022-12-29T02:37:46.148Z,16.50
2022-12-29T02:40:22.651Z,19.00
2022-12-29T02:42:57.516Z,22.00
2022-12-29T02:45:33.918Z,24.17
2022-12-29T02:48:10.461Z,19.13
2022-12-29T02:50:41.331Z,20.80
2022-12-29T02:53:13.092Z,26.80
2022-12-29T02:55:42.105Z,22.63
2022-12-29T02:58:20.078Z,22.77
2022-12-29T03:01:03.212Z,21.83
2022-12-29T03:03:43.879Z,18.67
2022-12-29T03:06:24.403Z,17.03
2022-12-29T03:09:01.301Z,17.10
2022-12-29T03:11:52.953Z,18.70
2022-12-29T03:14:46.354Z,15.73
2022-12-29T03:17:26.663Z,17.10
2022-12-29T03:20:01.430Z,17.83
2022-12-29T03:22:34.245Z,20.80
2022-12-29T03:25:05.714Z,19.70
2022-12-29T03:27:38.481Z,20.73
2022-12-29T03:30:09.857Z,21.40
2022-12-29T03:32:42.774Z,25.50
2022-12-29T03:35:16.807Z,23.97
2022-12-29T03:37:52.011Z,14.80
2022-12-29T03:40:23.042Z,18.47
2022-12-29T03:42:51.281Z,16.87
2022-12-29T03:45:19.240Z,17.87
2022-12-29T03:47:47.294Z,13.83
2022-12-29T03:50:16.829Z,13.50
2022-12-29T03:52:46.422Z,14.40
2022-12-29T03:55:14.584Z,16.50
2022-12-29T03:57:42.533Z,15.27
2022-12-29T04:00:11.945Z,14.73
2022-12-29T04:02:40.052Z,19.50
2022-12-29T04:05:09.068Z,16.87
2022-12-29T04:07:38.393Z,16.63
2022-12-29T04:10:07.055Z,22.57
2022-12-29T04:12:35.079Z,18.90
2022-12-29T04:15:02.999Z,17.77
2022-12-29T04:17:31.288Z,15.63
2022-12-29T04:20:19.241Z,19.33
2022-12-29T04:22:48.566Z,20.80
2022-12-29T04:25:16.758Z,19.03
2022-12-29T04:27:46.529Z,21.40
2022-12-29T04:30:14.692Z,15.23
2022-12-29T04:32:42.843Z,18.83
2022-12-29T04:35:10.974Z,18.83
2022-12-29T04:37:38.911Z,21.70
2022-12-29T04:40:10.147Z,20.00
2022-12-29T04:42:38.191Z,17.70
2022-12-29T04:45:07.067Z,18.03
2022-12-29T04:47:35.036Z,18.13
2022-12-29T04:50:03.152Z,21.00
2022-12-29T04:52:31.068Z,22.50
2022-12-29T04:54:59.012Z,21.50
2022-12-29T04:57:28.568Z,21.97
2022-12-29T04:59:56.508Z,17.90
2022-12-29T05:02:24.609Z,21.93
2022-12-29T05:04:52.719Z,16.23
2022-12-29T05:07:20.912Z,22.70
2022-12-29T05:09:48.868Z,18.37
2022-12-29T05:12:16.795Z,23.97
2022-12-29T05:14:47.319Z,20.40
2022-12-29T05:17:15.320Z,21.10
2022-12-29T05:19:43.332Z,20.60
2022-12-29T05:22:11.285Z,25.00
2022-12-29T05:24:39.223Z,21.30
2022-12-29T05:27:07.137Z,28.20
2022-12-29T05:29:35.772Z,29.07
2022-12-29T05:32:05.584Z,39.87
2022-12-29T05:34:34.106Z,24.83
2022-12-29T05:37:03.417Z,20.20
2022-12-29T05:39:31.485Z,19.87
2022-12-29T05:41:59.456Z,22.53
2022-12-29T05:44:27.617Z,30.03
2022-12-29T05:46:55.845Z,19.97
2022-12-29T05:49:25.200Z,21.00
2022-12-29T05:51:53.260Z,16.37
2022-12-29T05:54:23.149Z,16.50
2022-12-29T05:56:51.167Z,19.43
2022-12-29T05:59:19.156Z,21.67
2022-12-29T06:01:47.303Z,22.33
2022-12-29T06:04:15.362Z,18.53
2022-12-29T06:06:44.972Z,18.87
2022-12-29T06:09:13.169Z,23.27
2022-12-29T06:11:41.184Z,17.43
2022-12-29T06:14:09.191Z,23.83
2022-12-29T06:16:37.434Z,18.97
2022-12-29T06:19:08.520Z,17.30
2022-12-29T06:21:36.473Z,14.97
2022-12-29T06:24:06.575Z,17.57
2022-12-29T06:26:34.620Z,17.03
2022-12-29T06:29:03.762Z,19.23
2022-12-29T06:31:31.834Z,18.47
2022-12-29T06:34:04.913Z,21.23
2022-12-29T06:36:36.015Z,25.87
2022-12-29T06:39:05.483Z,21.57
2022-12-29T06:41:33.658Z,26.70
2022-12-29T06:44:01.693Z,26.93
2022-12-29T06:46:29.929Z,26.07
2022-12-29T06:48:58.043Z,31.43
2022-12-29T06:51:26.216Z,29.50
2022-12-29T06:53:54.205Z,28.23
2022-12-29T06:56:23.846Z,29.70
2022-12-29T06:58:54.626Z,29.57
2022-12-29T07:01:22.821Z,25.63
2022-12-29T07:03:50.898Z,21.53
2022-12-29T07:06:19.000Z,25.13
2022-12-29T07:08:46.976Z,29.43
2022-12-29T07:11:15.133Z,36.47
2022-12-29T07:13:44.476Z,38.37
2022-12-29T07:16:12.807Z,42.60
2022-12-29T07:18:40.820Z,27.97
2022-12-29T07:21:08.912Z,24.50
2022-12-29T07:23:37.213Z,22.87
2022-12-29T07:26:07.014Z,25.67
2022-12-29T07:28:36.484Z,22.37
2022-12-29T07:31:06.100Z,23.93
2022-12-29T07:33:34.915Z,19.73
2022-12-29T07:36:02.936Z,22.93
2022-12-29T07:38:31.049Z,22.60
2022-12-29T07:40:59.999Z,25.93
2022-12-29T07:43:28.172Z,30.87
2022-12-29T07:45:56.365Z,29.80
2022-12-29T07:48:25.814Z,32.57
2022-12-29T07:50:54.600Z,30.60
2022-12-29T07:53:22.824Z,41.53
2022-12-29T07:55:50.924Z,38.47
2022-12-29T07:58:19.643Z,39.00
2022-12-29T08:00:47.765Z,41.10
2022-12-29T08:03:15.724Z,43.90
2022-12-29T08:05:45.127Z,44.13
2022-12-29T08:08:13.061Z,51.83
2022-12-29T08:10:41.064Z,42.57
2022-12-29T08:13:09.111Z,47.43
2022-12-29T08:15:37.111Z,62.73
2022-12-29T08:18:06.020Z,56.30
2022-12-29T08:20:34.463Z,54.77
2022-12-29T08:23:03.869Z,53.23
2022-12-29T08:25:31.772Z,46.43
2022-12-29T08:27:59.697Z,54.23
2022-12-29T08:30:27.709Z,46.47
2022-12-29T08:32:56.221Z,41.57
2022-12-29T08:35:24.177Z,40.77
2022-12-29T08:37:52.138Z,39.27
2022-12-29T08:40:21.503Z,46.53
2022-12-29T08:42:49.558Z,36.37
2022-12-29T08:45:17.676Z,37.50
2022-12-29T08:47:45.889Z,35.47
2022-12-29T08:50:13.887Z,35.03
2022-12-29T08:52:41.887Z,35.33
2022-12-29T08:55:10.724Z,34.83
2022-12-29T08:57:40.035Z,40.83
2022-12-29T09:00:09.418Z,44.93
2022-12-29T09:02:37.509Z,52.10
2022-12-29T09:05:06.504Z,65.40
2022-12-29T09:07:34.577Z,48.57
2022-12-29T09:10:02.572Z,53.23
2022-12-29T09:12:36.139Z,49.53
2022-12-29T09:15:07.654Z,55.60
2022-12-29T09:17:45.273Z,45.97
2022-12-29T09:20:14.685Z,52.60
2022-12-29T09:22:43.476Z,50.37
2022-12-29T09:25:12.027Z,44.23
2022-12-29T09:27:41.093Z,48.20
2022-12-29T09:30:12.994Z,44.97
2022-12-29T09:32:45.018Z,49.70
2022-12-29T09:35:14.291Z,56.50
2022-12-29T09:37:42.686Z,43.70
2022-12-29T09:40:25.653Z,56.70
2022-12-29T09:43:07.315Z,53.00
2022-12-29T09:45:43.385Z,50.70
2022-12-29T09:48:17.931Z,50.53
2022-12-29T09:50:50.054Z,43.70
2022-12-29T09:53:23.856Z,42.53
2022-12-29T09:55:56.127Z,43.30
2022-12-29T09:58:30.273Z,37.17
2022-12-29T10:01:04.459Z,45.97
2022-12-29T10:03:44.323Z,44.93
2022-12-29T10:06:17.458Z,43.77
2022-12-29T10:08:54.796Z,48.60
2022-12-29T10:11:33.411Z,43.13
2022-12-29T10:14:16.338Z,40.13
2022-12-29T10:16:54.257Z,42.63
2022-12-29T10:19:47.860Z,43.97
2022-12-29T10:22:25.472Z,44.47
2022-12-29T10:24:56.990Z,44.13
2022-12-29T10:27:25.863Z,44.03
2022-12-29T10:29:57.544Z,40.83
2022-12-29T10:32:33.626Z,44.20
2022-12-29T10:35:07.719Z,42.67
2022-12-29T10:37:42.548Z,44.57
2022-12-29T10:40:20.836Z,42.40
2022-12-29T10:42:54.218Z,41.93
2022-12-29T10:45:26.126Z,42.07
2022-12-29T10:48:01.721Z,42.53
2022-12-29T10:50:31.006Z,41.03
2022-12-29T10:53:02.430Z,39.27
2022-12-29T10:55:34.829Z,37.73
2022-12-29T10:58:06.740Z,39.40
2022-12-29T11:00:35.609Z,44.03
2022-12-29T11:03:28.836Z,40.60
2022-12-29T11:06:00.991Z,43.40
2022-12-29T11:08:35.793Z,38.10
2022-12-29T11:11:06.139Z,36.60
2022-12-29T11:13:39.283Z,37.83
2022-12-29T11:16:07.857Z,40.63
2022-12-29T11:18:39.536Z,42.73
2022-12-29T11:21:25.405Z,41.57
2022-12-29T11:23:59.157Z,44.40
2022-12-29T11:26:33.811Z,37.90
2022-12-29T11:29:22.168Z,35.03
2022-12-29T11:31:51.596Z,34.77
2022-12-29T11:34:24.339Z,34.57
2022-12-29T11:36:53.773Z,34.00
2022-12-29T11:39:35.560Z,45.73
2022-12-29T11:42:04.539Z,34.10
2022-12-29T11:44:39.136Z,32.27
2022-12-29T11:47:11.110Z,35.80
2022-12-29T11:49:40.769Z,32.73
2022-12-29T11:52:10.281Z,35.30
2022-12-29T11:54:39.755Z,33.13
2022-12-29T11:57:14.856Z,35.17
2022-12-29T11:59:51.400Z,40.13
2022-12-29T12:02:41.989Z,38.67
2022-12-29T12:05:20.590Z,35.60
2022-12-29T12:07:51.628Z,34.33
2022-12-29T12:10:24.871Z,34.30
2022-12-29T12:13:00.638Z,36.50
2022-12-29T12:15:33.551Z,33.43
2022-12-29T12:18:07.390Z,34.17
2022-12-29T12:20:45.204Z,31.23
2022-12-29T12:23:28.015Z,34.00
2022-12-29T12:26:04.537Z,30.00
2022-12-29T12:28:42.681Z,31.20
2022-12-29T12:31:20.818Z,28.40
2022-12-29T12:33:52.818Z,31.93
2022-12-29T12:36:47.471Z,32.63
2022-12-29T12:39:27.693Z,34.40
2022-12-29T12:42:08.678Z,31.73
2022-12-29T12:44:48.009Z,27.73
2022-12-29T12:47:29.882Z,26.67
2022-12-29T12:50:15.371Z,29.30
2022-12-29T12:53:00.224Z,29.90
2022-12-29T12:55:43.816Z,38.33
2022-12-29T12:58:20.342Z,45.97
2022-12-29T13:01:05.173Z,31.63
2022-12-29T13:03:52.138Z,26.40
2022-12-29T13:06:30.594Z,26.63
2022-12-29T13:09:14.698Z,22.83
2022-12-29T13:11:58.644Z,28.60
2022-12-29T13:14:38.509Z,24.60
2022-12-29T13:17:13.752Z,34.17
2022-12-29T13:19:49.973Z,28.50
2022-12-29T13:22:26.332Z,26.50
2022-12-29T13:25:11.139Z,28.27
2022-12-29T13:27:46.224Z,29.27
2022-12-29T13:30:19.620Z,39.37
2022-12-29T13:32:59.091Z,28.33
2022-12-29T13:35:45.025Z,31.40
2022-12-29T13:38:19.287Z,35.27
2022-12-29T13:40:53.878Z,39.77
2022-12-29T13:43:24.028Z,36.03
2022-12-29T13:45:59.642Z,97.07
2022-12-29T13:48:37.927Z,30.20
2022-12-29T13:51:07.067Z,40.90
2022-12-29T13:53:43.980Z,36.00
2022-12-29T13:56:21.416Z,28.47
2022-12-29T13:58:56.129Z,36.70
2022-12-29T14:01:30.316Z,37.03
2022-12-29T14:04:00.291Z,29.40
2022-12-29T14:06:30.055Z,34.20
2022-12-29T14:08:59.686Z,28.10
2022-12-29T14:11:34.508Z,42.83
2022-12-29T14:14:13.692Z,73.77
2022-12-29T14:16:43.297Z,76.97
2022-12-29T14:19:17.289Z,38.13
2022-12-29T14:21:53.908Z,42.17
2022-12-29T14:24:46.672Z,33.87
2022-12-29T14:27:56.067Z,35.80
2022-12-29T14:30:50.463Z,33.60
2022-12-29T14:33:18.932Z,41.80
2022-12-29T14:35:50.626Z,36.63
2022-12-29T14:38:25.222Z,40.10
2022-12-29T14:40:53.544Z,31.53
2022-12-29T14:43:27.209Z,32.90
2022-12-29T14:46:01.829Z,33.83
2022-12-29T14:48:37.847Z,32.30
2022-12-29T14:51:23.065Z,36.07
2022-12-29T14:53:52.665Z,45.57
2022-12-29T14:56:26.126Z,64.70
2022-12-29T14:58:57.279Z,86.87
2022-12-29T15:01:38.638Z,71.60
2022-12-29T15:04:17.015Z,55.13
2022-12-29T15:06:46.842Z,51.87
2022-12-29T15:09:25.814Z,65.03
2022-12-29T15:11:55.768Z,35.90
2022-12-29T15:14:36.693Z,40.10
2022-12-29T15:17:12.562Z,36.33
2022-12-29T15:19:40.616Z,37.43
2022-12-29T15:22:10.887Z,29.00
2022-12-29T15:24:43.770Z,39.03
2022-12-29T15:27:16.399Z,35.23
2022-12-29T15:29:48.069Z,32.67
2022-12-29T15:32:21.939Z,35.80
2022-12-29T15:34:52.618Z,34.03
2022-12-29T15:37:22.744Z,50.17
2022-12-29T15:39:51.322Z,35.50
2022-12-29T15:42:38.232Z,38.70
2022-12-29T15:45:11.840Z,37.60
2022-12-29T15:47:41.762Z,35.50
2022-12-29T15:50:17.072Z,36.07
2022-12-29T15:52:44.999Z,35.13
2022-12-29T15:55:22.505Z,36.03
2022-12-29T15:57:50.896Z,40.60
2022-12-29T16:00:29.091Z,40.80
2022-12-29T16:02:59.353Z,34.33
2022-12-29T16:05:35.292Z,38.53
2022-12-29T16:08:03.939Z,38.83
2022-12-29T16:10:37.887Z,40.43
2022-12-29T16:13:14.512Z,46.47
2022-12-29T16:15:47.623Z,37.43
2022-12-29T16:18:25.623Z,40.70
2022-12-29T16:20:54.493Z,42.90
2022-12-29T16:23:26.192Z,37.97
2022-12-29T16:25:56.546Z,42.77
2022-12-29T16:28:26.650Z,39.70
2022-12-29T16:31:05.832Z,38.57
2022-12-29T16:33:46.899Z,37.17
2022-12-29T16:36:42.573Z,37.93
2022-12-29T16:39:44.277Z,34.33
2022-12-29T16:42:39.947Z,42.00
2022-12-29T16:45:55.990Z,54.83
2022-12-29T16:48:28.540Z,55.30
2022-12-29T16:51:05.197Z,45.00
2022-12-29T16:53:37.773Z,42.17
2022-12-29T16:56:10.464Z,38.40
2022-12-29T16:58:41.995Z,39.43
2022-12-29T17:01:15.568Z,54.10
2022-12-29T17:03:49.835Z,55.17
2022-12-29T17:06:19.813Z,49.03
2022-12-29T17:08:48.500Z,47.63
2022-12-29T17:11:47.825Z,51.07
2022-12-29T17:14:22.168Z,53.97
2022-12-29T17:16:50.655Z,46.03
2022-12-29T17:19:25.802Z,43.07
2022-12-29T17:21:53.675Z,42.40
2022-12-29T17:24:22.199Z,47.93
2022-12-29T17:26:53.272Z,55.43
2022-12-29T17:29:26.959Z,40.60
2022-12-29T17:31:55.257Z,40.63
2022-12-29T17:34:25.062Z,40.70
2022-12-29T17:36:52.989Z,50.70
2022-12-29T17:39:20.949Z,44.63
2022-12-29T17:41:49.195Z,42.93
2022-12-29T17:44:21.504Z,46.70
2022-12-29T17:46:50.184Z,41.37
2022-12-29T17:49:19.667Z,45.13
2022-12-29T17:51:49.201Z,51.67
2022-12-29T17:54:22.188Z,40.40
2022-12-29T17:56:50.638Z,38.43
2022-12-29T17:59:19.404Z,40.43
2022-12-29T18:01:49.270Z,38.03
2022-12-29T18:04:18.988Z,38.40
2022-12-29T18:06:48.788Z,42.40
2022-12-29T18:09:18.327Z,45.10
2022-12-29T18:11:47.285Z,41.27
2022-12-29T18:14:16.315Z,39.63
2022-12-29T18:16:44.694Z,50.97
2022-12-29T18:19:12.691Z,45.77
2022-12-29T18:21:42.550Z,47.83
2022-12-29T18:24:15.961Z,51.73
2022-12-29T18:26:43.895Z,59.20
2022-12-29T18:29:12.566Z,56.13
2022-12-29T18:31:40.573Z,62.13
2022-12-29T18:34:15.414Z,62.03
2022-12-29T18:36:43.697Z,70.67
2022-12-29T18:39:13.828Z,58.80
2022-12-29T18:41:41.940Z,65.30
2022-12-29T18:44:13.925Z,53.73
2022-12-29T18:46:42.025Z,56.10
2022-12-29T18:49:10.032Z,61.60
2022-12-29T18:51:38.065Z,57.40
2022-12-29T18:54:06.096Z,52.27
2022-12-29T18:56:35.602Z,50.43
2022-12-29T18:59:03.717Z,58.17
2022-12-29T19:01:31.782Z,60.17
2022-12-29T19:03:59.952Z,59.37
2022-12-29T19:06:28.223Z,58.50
2022-12-29T19:08:56.231Z,68.27
2022-12-29T19:11:24.308Z,55.37
2022-12-29T19:13:53.643Z,57.83
2022-12-29T19:16:24.903Z,57.40
2022-12-29T19:19:08.272Z,57.97
2022-12-29T19:21:37.599Z,61.47
2022-12-29T19:24:05.779Z,58.40
2022-12-29T19:26:36.358Z,62.03
2022-12-29T19:29:07.571Z,55.37
2022-12-29T19:31:35.800Z,52.40
2022-12-29T19:34:04.057Z,53.57
2022-12-29T19:36:32.382Z,61.33
2022-12-29T19:39:00.722Z,59.40
2022-12-29T19:41:28.762Z,64.17
2022-12-29T19:43:57.227Z,64.13
2022-12-29T19:46:26.550Z,62.27
2022-12-29T19:48:58.602Z,58.23
2022-12-29T19:51:27.599Z,51.40
2022-12-29T19:53:56.337Z,53.27
2022-12-29T19:56:24.335Z,60.63
2022-12-29T19:58:52.476Z,55.10
2022-12-29T20:01:22.438Z,71.13
2022-12-29T20:03:52.487Z,66.67
2022-12-29T20:06:21.036Z,61.33
2022-12-29T20:08:49.105Z,62.00
2022-12-29T20:11:19.554Z,64.97
2022-12-29T20:13:48.293Z,69.43
2022-12-29T20:16:19.068Z,61.00
2022-12-29T20:18:48.388Z,62.13
2022-12-29T20:21:19.656Z,56.40
2022-12-29T20:23:48.283Z,70.30
2022-12-29T20:26:18.467Z,61.70
2022-12-29T20:28:46.539Z,64.10
2022-12-29T20:31:18.543Z,58.53
2022-12-29T20:33:47.193Z,59.87
2022-12-29T20:36:19.455Z,65.77
2022-12-29T20:38:49.323Z,72.13
2022-12-29T20:41:17.530Z,75.10
2022-12-29T20:43:45.535Z,60.13
2022-12-29T20:46:20.532Z,58.57
2022-12-29T20:48:49.900Z,58.77
2022-12-29T20:51:20.830Z,61.60
2022-12-29T20:53:49.311Z,61.50
2022-12-29T20:56:19.858Z,63.50
2022-12-29T21:01:37.266Z,65.30
2022-12-29T21:04:06.325Z,70.03
2022-12-29T21:06:36.208Z,52.23
2022-12-29T21:09:04.921Z,67.03
2022-12-29T21:11:33.095Z,58.47
2022-12-29T21:14:01.591Z,51.17
2022-12-29T21:16:29.930Z,61.90
2022-12-29T21:18:57.939Z,55.20
2022-12-29T21:21:27.138Z,62.37
2022-12-29T21:24:05.486Z,52.57
2022-12-29T21:26:34.851Z,56.70
2022-12-29T21:29:04.291Z,49.83
2022-12-29T21:31:34.492Z,65.17
2022-12-29T21:34:03.998Z,55.93
2022-12-29T21:36:33.025Z,66.20
2022-12-29T21:39:03.360Z,69.07
2022-12-29T21:41:31.871Z,57.27
2022-12-29T21:44:17.973Z,54.13
2022-12-29T21:46:48.744Z,54.67
2022-12-29T21:49:17.086Z,59.43
2022-12-29T21:51:50.933Z,57.20
2022-12-29T21:54:39.535Z,54.60
2022-12-29T21:57:07.997Z,51.27
2022-12-29T21:59:53.344Z,55.87
2022-12-29T22:02:41.178Z,53.83
2022-12-29T22:05:29.028Z,53.90
2022-12-29T22:08:14.283Z,53.73
2022-12-29T22:11:03.419Z,46.67
2022-12-29T22:13:32.970Z,55.37
2022-12-29T22:16:03.485Z,47.63
2022-12-29T22:18:31.459Z,52.27
2022-12-29T22:20:59.388Z,52.40
2022-12-29T22:23:27.640Z,57.70
2022-12-29T22:25:57.187Z,48.73
2022-12-29T22:28:25.260Z,58.70
2022-12-29T22:30:53.274Z,50.63
2022-12-29T22:33:21.267Z,46.90
2022-12-29T22:35:49.204Z,54.20
2022-12-29T22:38:17.166Z,50.07
2022-12-29T22:40:45.097Z,52.50
2022-12-29T22:43:14.548Z,51.37
2022-12-29T22:45:42.915Z,54.90
2022-12-29T22:48:10.848Z,59.53
2022-12-29T22:50:40.628Z,51.70
2022-12-29T22:53:08.515Z,54.00
2022-12-29T22:55:36.445Z,53.10
2022-12-29T22:58:04.462Z,59.80
2022-12-29T23:00:33.801Z,71.57
2022-12-29T23:03:01.849Z,71.57
2022-12-29T23:05:29.845Z,75.97
2022-12-29T23:07:57.811Z,73.50
2022-12-29T23:10:25.790Z,84.80
2022-12-29T23:12:53.755Z,75.73
2022-12-29T23:15:21.666Z,74.37
2022-12-29T23:17:50.968Z,73.33
2022-12-29T23:20:18.993Z,83.97
2022-12-29T23:22:46.863Z,67.60
2022-12-29T23:25:14.867Z,73.13
2022-12-29T23:27:42.794Z,62.43
2022-12-29T23:30:11.452Z,65.27
2022-12-29T23:32:39.370Z,65.27
2022-12-29T23:35:09.843Z,60.83
2022-12-29T23:37:37.977Z,57.83
2022-12-29T23:40:07.037Z,65.83
2022-12-29T23:42:35.197Z,75.60
2022-12-29T23:45:03.143Z,60.43
2022-12-29T23:47:31.107Z,58.20
2022-12-29T23:49:59.132Z,54.50
2022-12-29T23:52:28.477Z,61.10
2022-12-29T23:54:56.499Z,55.00
2022-12-29T23:57:24.453Z,59.47
2022-12-29T23:59:52.493Z,65.73
